Map

Track Data

SID SEASON NUMBER BASIN SUBBASIN NAME ISO_TIME NATURE LAT LON WMO_WIND WMO_PRES WMO_AGENCY TRACK_TYPE DIST2LAND LANDFALL IFLAG USA_AGENCY USA_ATCF_ID USA_LAT USA_LON USA_RECORD USA_STATUS USA_WIND USA_PRES USA_SSHS USA_R34_NE USA_R34_SE USA_R34_SW USA_R34_NW USA_R50_NE USA_R50_SE USA_R50_SW USA_R50_NW USA_R64_NE USA_R64_SE USA_R64_SW USA_R64_NW USA_POCI USA_ROCI USA_RMW USA_EYE TOKYO_LAT TOKYO_LON TOKYO_GRADE TOKYO_WIND TOKYO_PRES TOKYO_R50_DIR TOKYO_R50_LONG TOKYO_R50_SHORT TOKYO_R30_DIR TOKYO_R30_LONG TOKYO_R30_SHORT TOKYO_LAND CMA_LAT CMA_LON CMA_CAT CMA_WIND CMA_PRES HKO_LAT HKO_LON HKO_CAT HKO_WIND HKO_PRES NEWDELHI_LAT NEWDELHI_LON NEWDELHI_GRADE NEWDELHI_WIND NEWDELHI_PRES NEWDELHI_CI NEWDELHI_DP NEWDELHI_POCI REUNION_LAT REUNION_LON REUNION_TYPE REUNION_WIND REUNION_PRES REUNION_TNUM REUNION_CI REUNION_RMW REUNION_R34_NE REUNION_R34_SE REUNION_R34_SW REUNION_R34_NW REUNION_R50_NE REUNION_R50_SE REUNION_R50_SW REUNION_R50_NW REUNION_R64_NE REUNION_R64_SE REUNION_R64_SW REUNION_R64_NW BOM_LAT BOM_LON BOM_TYPE BOM_WIND BOM_PRES BOM_TNUM BOM_CI BOM_RMW BOM_R34_NE BOM_R34_SE BOM_R34_SW BOM_R34_NW BOM_R50_NE BOM_R50_SE BOM_R50_SW BOM_R50_NW BOM_R64_NE BOM_R64_SE BOM_R64_SW BOM_R64_NW BOM_ROCI BOM_POCI BOM_EYE BOM_POS_METHOD BOM_PRES_METHOD NADI_LAT NADI_LON NADI_CAT NADI_WIND NADI_PRES WELLINGTON_LAT WELLINGTON_LON WELLINGTON_WIND WELLINGTON_PRES DS824_LAT DS824_LON DS824_STAGE DS824_WIND DS824_PRES TD9636_LAT TD9636_LON TD9636_STAGE TD9636_WIND TD9636_PRES TD9635_LAT TD9635_LON TD9635_WIND TD9635_PRES TD9635_ROCI NEUMANN_LAT NEUMANN_LON NEUMANN_CLASS NEUMANN_WIND NEUMANN_PRES MLC_LAT MLC_LON MLC_CLASS MLC_WIND MLC_PRES USA_GUST BOM_GUST BOM_GUST_PER REUNION_GUST REUNION_GUST_PER USA_SEAHGT USA_SEARAD_NE USA_SEARAD_SE USA_SEARAD_SW USA_SEARAD_NW STORM_SPEED STORM_DIR
1959332N10081 1959 105 NI BB NOT_NAMED 1959-11-27 18:00:00 TS 9.90000 80.5000 main 31 31 O________O____ jtwc_io IO151959 9.90000 80.5000 -1 9.90000 80.5000 TC 1 270
1959332N10081 1959 105 NI BB NOT_NAMED 1959-11-27 21:00:00 TS 9.89995 80.4650 main 31 22 P________P____ IO151959 9.89995 80.4650 -1 9.89995 80.4650 TC 2 270
1959332N10081 1959 105 NI BB NOT_NAMED 1959-11-28 00:00:00 TS 9.90000 80.3000 main 22 22 O________O____ jtwc_io IO151959 9.90000 80.3000 -1 9.90000 80.3000 TC 25 5 270
1959332N10081 1959 105 NI BB NOT_NAMED 1959-11-28 03:00:00 TS 9.90002 79.9155 main 31 15 P________PO___ IO151959 9.90002 79.9175 -1 9.90002 79.9175 TC 25 9.90000 79.9000 1 9 270
1959332N10081 1959 105 NI BB NOT_NAMED 1959-11-28 06:00:00 TS 9.90011 79.3919 main 15 0 O________OP___ jtwc_io IO151959 9.90000 79.4000 -1 9.90000 79.4000 TC 25 9.90056 79.3593 1 10 270
1959332N10081 1959 105 NI BB NOT_NAMED 1959-11-28 09:00:00 TS 9.90011 78.8568 main 0 0 P________PP___ IO151959 9.89994 78.8725 -1 9.89994 78.8725 TC 25 9.90057 78.8149 1 11 270
1959332N10081 1959 105 NI BB NOT_NAMED 1959-11-28 12:00:00 TS 9.90010 78.2877 main 0 0 O________OP___ jtwc_io IO151959 9.90000 78.3000 -1 9.90000 78.3000 TC 25 9.90029 78.2631 1 11 270
1959332N10081 1959 105 NI AS NOT_NAMED 1959-11-28 15:00:00 TS 9.89998 77.7000 main 0 0 P________PO___ IO151959 9.89997 77.7000 -1 9.89997 77.7000 TC 25 9.90000 77.7000 1 12 270
1959332N10081 1959 105 NI AS NOT_NAMED 1959-11-28 18:00:00 TS 9.89995 77.1080 main 0 0 O________OP___ jtwc_io IO151959 9.90000 77.1000 -1 9.90000 77.1000 TC 25 9.89986 77.1241 1 11 270
1959332N10081 1959 105 NI AS NOT_NAMED 1959-11-28 21:00:00 TS 9.89986 76.5425 main 0 0 P________PP___ IO151959 9.89987 76.5425 -1 9.89987 76.5425 TC 25 9.89983 76.5425 1 11 270
1959332N10081 1959 105 NI AS NOT_NAMED 1959-11-29 00:00:00 TS 9.89996 75.9882 main 24 24 O________OP___ jtwc_io IO151959 9.90000 76.0000 -1 9.90000 76.0000 TC 25 9.89987 75.9647 1 11 270
1959332N10081 1959 105 NI AS NOT_NAMED 1959-11-29 03:00:00 TS 9.89994 75.4333 main 88 88 P________PO___ IO151959 9.89991 75.4500 -1 9.89991 75.4500 TC 25 9.90000 75.4000 1 11 270
1959332N10081 1959 105 NI AS NOT_NAMED 1959-11-29 06:00:00 TS 9.89991 74.8842 main 142 142 O________OP___ jtwc_io IO151959 9.90000 74.9000 -1 9.90000 74.9000 TC 25 9.89972 74.8525 1 11 270
1959332N10081 1959 105 NI AS NOT_NAMED 1959-11-29 09:00:00 TS 9.89985 74.3350 main 202 202 P________PP___ IO151959 9.89995 74.3425 -1 9.89995 74.3425 TC 25 9.89966 74.3201 1 11 270
1959332N10081 1959 105 NI AS NOT_NAMED 1959-11-29 12:00:00 TS 9.89992 73.8008 main 251 251 O________OP___ jtwc_io IO151959 9.90000 73.8000 -1 9.90000 73.8000 TC 25 9.89977 73.8025 1 10 270
1959332N10081 1959 105 NI AS NOT_NAMED 1959-11-29 15:00:00 TS 9.89993 73.2950 main 301 301 P________PO___ IO151959 9.89989 73.2925 -1 9.89989 73.2925 TC 25 9.90000 73.3000 1 10 270
1959332N10081 1959 105 NI AS NOT_NAMED 1959-11-29 18:00:00 TS 9.89994 72.7995 main 352 352 O________OP___ jtwc_io IO151959 9.90000 72.8000 -1 9.90000 72.8000 TC 25 9.89981 72.7985 1 10 270
1959332N10081 1959 105 NI AS NOT_NAMED 1959-11-29 21:00:00 TS 9.89992 72.2942 main 394 394 P________PP___ IO151959 9.89999 72.2850 -1 9.89999 72.2850 TC 25 9.89978 72.3125 1 10 270
1959332N10081 1959 105 NI AS NOT_NAMED 1959-11-30 00:00:00 TS 9.89995 71.8151 main 439 439 O________OP___ jtwc_io IO151959 9.90000 71.8000 -1 9.90000 71.8000 TC 25 9.89986 71.8453 1 9 270
1959332N10081 1959 105 NI AS NOT_NAMED 1959-11-30 03:00:00 TS 9.89993 71.3900 main 477 477 P________PO___ IO151959 9.89989 71.3850 -1 9.89989 71.3850 TC 25 9.90000 71.4000 1 8 270
1959332N10081 1959 105 NI AS NOT_NAMED 1959-11-30 06:00:00 TS 9.90263 70.9915 main 515 515 O________OP___ jtwc_io IO151959 9.90000 71.0000 -1 9.90000 71.0000 TC 25 9.90788 70.9745 1 8 270
1959332N10081 1959 105 NI AS NOT_NAMED 1959-11-30 09:00:00 TS 9.90487 70.5900 main 554 554 P________PP___ IO151959 9.89995 70.6000 -1 9.89995 70.6000 TC 25 9.91469 70.5701 1 8 270
1959332N10081 1959 105 NI AS NOT_NAMED 1959-11-30 12:00:00 TS 9.90472 70.1936 main 593 593 O________OP___ jtwc_io IO151959 9.90000 70.2000 -1 9.90000 70.2000 TC 25 9.91417 70.1807 1 8 270
1959332N10081 1959 105 NI AS NOT_NAMED 1959-11-30 15:00:00 TS 9.90497 69.8000 main 632 632 P________PO___ IO151959 9.90745 69.8000 -1 9.90745 69.8000 TC 25 9.90000 69.8000 1 8 269
1959332N10081 1959 105 NI AS NOT_NAMED 1959-11-30 18:00:00 TS 9.89353 69.3992 main 672 672 O________OP___ jtwc_io IO151959 9.90000 69.4000 -1 9.90000 69.4000 TC 25 9.88060 69.3976 1 8 267
1959332N10081 1959 105 NI AS NOT_NAMED 1959-11-30 21:00:00 TS 9.85835 68.9867 main 711 711 P________PP___ IO151959 9.86502 68.9775 -1 9.86502 68.9775 TC 25 9.84500 69.0051 1 8 263
1959332N10081 1959 105 NI AS NOT_NAMED 1959-12-01 00:00:00 TS 9.79563 68.6117 main 755 755 O________OP___ jtwc_io IO151959 9.80000 68.6000 -1 9.80000 68.6000 TC 25 9.78689 68.6351 1 7 257
1959332N10081 1959 105 NI AS NOT_NAMED 1959-12-01 03:00:00 TS 9.70995 68.3184 main 789 789 P________PO___ IO151959 9.71492 68.3275 -1 9.71492 68.3275 TC 25 9.70000 68.3000 1 6 249
1959332N10081 1959 105 NI AS NOT_NAMED 1959-12-01 06:00:00 TS 9.59420 68.0714 main 814 814 O________OP___ jtwc_io IO151959 9.60000 68.1000 -1 9.60000 68.1000 TC 25 9.58260 68.0141 1 6 243
1959332N10081 1959 105 NI AS NOT_NAMED 1959-12-01 09:00:00 TS 9.45573 67.8209 main 848 848 P________PP___ IO151959 9.46498 67.8500 -1 9.46498 67.8500 TC 25 9.43724 67.7626 1 6 238
1959332N10081 1959 105 NI AS NOT_NAMED 1959-12-01 12:00:00 TS 9.29109 67.5766 main 878 878 O________OP___ jtwc_io IO151959 9.30000 67.6000 -1 9.30000 67.6000 TC 25 9.27327 67.5297 1 6 234
1959332N10081 1959 105 NI AS NOT_NAMED 1959-12-01 15:00:00 TS 9.09999 67.3333 main 918 918 P________PO___ IO151959 9.09998 67.3500 -1 9.09998 67.3500 TC 25 9.10000 67.3000 1 6 232
1959332N10081 1959 105 NI AS NOT_NAMED 1959-12-01 18:00:00 TS 8.90396 67.0793 main 947 947 O________OP___ jtwc_io IO151959 8.90000 67.1000 -1 8.90000 67.1000 TC 25 8.91188 67.0378 1 6 234
1959332N10081 1959 105 NI AS NOT_NAMED 1959-12-01 21:00:00 TS 8.73499 66.8258 main 987 987 P________PP___ IO151959 8.74248 66.8500 -1 8.74248 66.8500 TC 25 8.72002 66.7774 1 6 237
1959332N10081 1959 105 NI AS NOT_NAMED 1959-12-02 00:00:00 TS 8.58105 66.5761 main 1012 1012 O________OP___ jtwc_io IO151959 8.60000 66.6000 -1 8.60000 66.6000 TC 25 8.54314 66.5284 1 6 238
1959332N10081 1959 105 NI AS NOT_NAMED 1959-12-02 03:00:00 TS 8.42334 66.3233 main 1051 1051 P________PO___ IO151959 8.43501 66.3350 -1 8.43501 66.3350 TC 25 8.40000 66.3000 1 5 239
1959332N10081 1959 105 NI AS NOT_NAMED 1959-12-02 06:00:00 TS 8.30195 66.1025 main 1076 1076 O________OP___ jtwc_io IO151959 8.30000 66.1000 -1 8.30000 66.1000 TC 25 8.30585 66.1076 1 4 244
1959332N10081 1959 105 NI AS NOT_NAMED 1959-12-02 09:00:00 TS 8.23411 65.9401 main 1101 1101 P________PP___ IO151959 8.22747 65.9425 -1 8.22747 65.9425 TC 25 8.24738 65.9351 1 3 253
1959332N10081 1959 105 NI AS NOT_NAMED 1959-12-02 12:00:00 TS 8.20508 65.7900 main 1111 1111 O________OP___ jtwc_io IO151959 8.20000 65.8000 -1 8.20000 65.8000 TC 25 8.21523 65.7701 1 3 263
1959332N10081 1959 105 NI AS NOT_NAMED 1959-12-02 15:00:00 TS 8.19500 65.6050 main 1130 1130 P________PO___ IO151959 8.19250 65.6075 -1 8.19250 65.6075 TC 25 8.20000 65.6000 1 4 269
1959332N10081 1959 105 NI AS NOT_NAMED 1959-12-02 18:00:00 TS 8.19519 65.4051 main 1150 1150 O________OP___ jtwc_io IO151959 8.20000 65.4000 -1 8.20000 65.4000 TC 25 8.18558 65.4153 1 4 270
1959332N10081 1959 105 NI AS NOT_NAMED 1959-12-02 21:00:00 TS 8.19497 65.2075 main 1169 1169 P________PP___ IO151959 8.19999 65.2000 -1 8.19999 65.2000 TC 25 8.18493 65.2225 1 4 270
1959332N10081 1959 105 NI AS NOT_NAMED 1959-12-03 00:00:00 TS 8.19727 65.0062 main 1189 1189 O________OP___ jtwc_io IO151959 8.20000 65.0000 -1 8.20000 65.0000 TC 25 8.19182 65.0185 1 4 271
1959332N10081 1959 105 NI AS NOT_NAMED 1959-12-03 03:00:00 TS 8.19999 64.8050 main 1209 1209 P________PO___ IO151959 8.19998 64.8075 -1 8.19998 64.8075 TC 25 8.20000 64.8000 1 4 270
1959332N10081 1959 105 NI AS NOT_NAMED 1959-12-03 06:00:00 TS 8.19864 64.5881 main 1210 1190 O________OP___ jtwc_io IO151959 8.20000 64.6000 -1 8.20000 64.6000 TC 25 8.19593 64.5644 1 5 270
1959332N10081 1959 105 NI AS NOT_NAMED 1959-12-03 09:00:00 TS 8.19749 64.3433 main 1180 1160 P________PP___ IO151959 8.20000 64.3575 -1 8.20000 64.3575 TC 25 8.19249 64.3150 1 5 270
1959332N10081 1959 105 NI AS NOT_NAMED 1959-12-03 12:00:00 TS 8.19760 64.0860 main 1160 1130 O________OP___ jtwc_io IO151959 8.20000 64.1000 -1 8.20000 64.1000 TC 25 8.19280 64.0581 1 5 270
1959332N10081 1959 105 NI AS NOT_NAMED 1959-12-03 15:00:00 TS 8.19499 63.8333 main 1130 1111 P________PO___ IO151959 8.19248 63.8500 -1 8.19248 63.8500 TC 25 8.20000 63.8000 1 5 270
1959332N10081 1959 105 NI AS NOT_NAMED 1959-12-03 18:00:00 TS 8.20183 63.5901 main 1111 1091 O________OP___ jtwc_io IO151959 8.20000 63.6000 -1 8.20000 63.6000 TC 25 8.20548 63.5702 1 5 275
1959332N10081 1959 105 NI AS NOT_NAMED 1959-12-03 21:00:00 TS 8.23491 63.3508 main 1091 1056 P________PP___ IO151959 8.24247 63.3575 -1 8.24247 63.3575 TC 25 8.21978 63.3374 1 5 279
1959332N10081 1959 105 NI AS NOT_NAMED 1959-12-04 00:00:00 TS 8.28306 63.0953 main 1056 1027 O________OP___ jtwc_io IO151959 8.30000 63.1000 -1 8.30000 63.1000 TC 25 8.24919 63.0858 1 5 280
1959332N10081 1959 105 NI AS NOT_NAMED 1959-12-04 03:00:00 TS 8.32830 62.8150 main 1027 993 P________PO___ IO151959 8.34246 62.8225 -1 8.34246 62.8225 TC 25 8.30000 62.8000 1 6 280
1959332N10081 1959 105 NI AS NOT_NAMED 1959-12-04 06:00:00 TS 8.38876 62.4870 main 993 949 O________OP___ jtwc_io IO151959 8.40000 62.5000 -1 8.40000 62.5000 TC 25 8.36629 62.4609 1 7 282
1959332N10081 1959 105 NI AS NOT_NAMED 1959-12-04 09:00:00 TS 8.47502 62.1058 main 949 905 P________PP___ IO151959 8.48500 62.1150 -1 8.48500 62.1150 TC 25 8.45505 62.0874 1 8 284
1959332N10081 1959 105 NI AS NOT_NAMED 1959-12-04 12:00:00 TS 8.58876 61.6984 main 905 862 O________OP___ jtwc_io IO151959 8.60000 61.7000 -1 8.60000 61.7000 TC 25 8.56627 61.6952 1 8 288
1959332N10081 1959 105 NI AS NOT_NAMED 1959-12-04 15:00:00 TS 8.72832 61.2950 main 862 813 P________PO___ IO151959 8.74248 61.2925 -1 8.74248 61.2925 TC 25 8.70000 61.3000 1 8 291
1959332N10081 1959 105 NI AS NOT_NAMED 1959-12-04 18:00:00 TS 8.88721 60.8976 main 813 769 O________OP___ jtwc_io IO151959 8.90000 60.9000 -1 8.90000 60.9000 TC 25 8.86164 60.8927 1 8 293
1959332N10081 1959 105 NI AS NOT_NAMED 1959-12-04 21:00:00 TS 9.04751 60.5251 main 769 729 P________PP___ IO151959 9.04994 60.5425 -1 9.04994 60.5425 TC 25 9.04264 60.4903 1 8 294
1959332N10081 1959 105 NI AS NOT_NAMED 1959-12-05 00:00:00 TS 9.20910 60.1726 main 729 680 O________OP___ jtwc_io IO151959 9.20000 60.2000 -1 9.20000 60.2000 TC 25 9.22730 60.1177 1 8 294
1959332N10081 1959 105 NI AS NOT_NAMED 1959-12-05 03:00:00 TS 9.36669 59.8133 main 680 647 P________PO___ IO151959 9.35004 59.8200 -1 9.35004 59.8200 TC 25 9.40000 59.8000 1 7 295
1959332N10081 1959 105 NI AS NOT_NAMED 1959-12-05 06:00:00 TS 9.51304 59.5238 main 647 625 O________OP___ jtwc_io IO151959 9.50000 59.5000 -1 9.50000 59.5000 TC 25 9.53912 59.5714 1 5 302
1959332N10081 1959 105 NI AS NOT_NAMED 1959-12-05 09:00:00 TS 9.65985 59.3457 main 616 601 P________PP___ IO151959 9.65744 59.3200 -1 9.65744 59.3200 TC 25 9.66468 59.3972 1 4 313
1959332N10081 1959 105 NI AS NOT_NAMED 1959-12-05 12:00:00 TS 9.79431 59.2165 main 601 586 O________OP___ jtwc_io IO151959 9.80000 59.2000 -1 9.80000 59.2000 TC 25 9.78292 59.2495 1 4 311
1959332N10081 1959 105 NI AS NOT_NAMED 1959-12-05 15:00:00 TS 9.89999 59.0716 main 586 561 P________PO___ IO151959 9.89998 59.0575 -1 9.89998 59.0575 TC 25 9.90000 59.1000 1 4 305
1959332N10081 1959 105 NI AS NOT_NAMED 1959-12-05 18:00:00 TS 10.0083 58.9106 main 561 536 O________OP___ jtwc_io IO151959 10.0000 58.9000 -1 10.0000 58.9000 TC 25 10.0208 58.9264 1 4 305
1959332N10081 1959 105 NI AS NOT_NAMED 1959-12-05 21:00:00 TS 10.1408 58.7187 main 536 506 P________PP___ IO151959 10.1375 58.7101 -1 10.1375 58.7101 TC 25 10.1453 58.7302 1 5 305
1959332N10081 1959 105 NI AS NOT_NAMED 1959-12-06 00:00:00 TS 10.2860 58.5095 main 506 482 O________OP___ jtwc_io IO151959 10.3000 58.5000 -1 10.3000 58.5000 TC 25 10.2721 58.5189 1 5 302
1959332N10081 1959 105 NI AS NOT_NAMED 1959-12-06 03:00:00 NR 10.4000 58.3000 main 482 __________O___ IO151959 -1 TC 10.4000 58.3000 1 5 299

About IBTrACS Database

This database is a web-friendly format of International Best Track Archive for Climate Stewardship (IBTrACS), a global best track data archive curated by NOAA dating back to 1842.

Updated: 2021-12-06